Beverly Hills, California
Current Conditions -  °F | °C
As of 12:51 PM on Tuesday 21 Oct 2014 (Local Time) from KSMO Reporting Station
Clear Clear  
Wind Chill: 72°   Ceiling: Unl
Heat Index: 72°   Visibility: 10mi
Dew Point: 57°   Wind: 10mph
Humidity: 59%   Direction: 240°WSW
Pressure: 29.89"   Gusts: NA
Location:  34.07°N, 118.39°W
Report Text: KSMO 211951Z 24009KT 10SM CLR 22/14 A2989 RMK AO2 SLP119 T02220139
Loading
Personal Weather Stations






























Interactive Weather Map
Tropical Storm Tracking
New forecast layout! Learn more

10-Day Weather Forecast

Advertisements
Track Severe Weather on mobile